Home > Products > Valid Products > TAF

000
FTUS43 KEAX 311727
TAFMKC
TAF
KMKC 311727Z 3118/0118 VRB04KT P6SM VCTS SCT025 BKN040CB
      TEMPO 3119/3122 -TSRA BKN040CB
     FM010200 VRB03KT P6SM SCT040 BKN120
     FM010600 34004KT P6SM SCT250=



000
FTUS43 KEAX 311727
TAFMCI
TAF
KMCI 311727Z 3118/0118 VRB05KT P6SM VCTS SCT025 BKN040CB
      TEMPO 3119/3122 -TSRA BKN040CB
     FM010200 33004KT P6SM SCT040 BKN120
     FM010600 34005KT P6SM SCT250=



000
FTUS43 KEAX 311727
TAFSTJ
TAF
KSTJ 311727Z 3118/0118 VRB06KT P6SM VCTS BKN040CB
      TEMPO 3119/3123 -TSRA
     FM010200 34003KT P6SM SCT040 BKN120
     FM010500 34004KT P6SM OVC250=



000
FTUS43 KEAX 311126
TAFSTJ
TAF
KSTJ 311126Z 3112/0112 16005KT P6SM BKN120
     FM311600 17006KT P6SM VCSH BKN050
     FM311800 18005KT P6SM -SHRA VCTS BKN040CB
     FM010200 30005KT P6SM SCT030 BKN120=



000
FTUS43 KEAX 310520
TAFMKC
TAF
KMKC 310520Z 3106/0106 18004KT P6SM SCT250
     FM310900 17004KT P6SM SCT040 SCT250
      TEMPO 3110/3113 5SM BR
     FM311600 18006KT P6SM VCSH BKN035
     FM312100 18005KT P6SM SHRA VCTS SCT025CB BKN035
     FM010200 27005KT P6SM SCT120 SCT200=



000
FTUS43 KEAX 310520
TAFSTJ
TAF
KSTJ 310520Z 3106/0106 17005KT P6SM SCT250
     FM311600 18006KT P6SM VCSH BKN035
     FM312100 18005KT P6SM SHRA VCTS BKN060CB
     FM010200 30005KT P6SM SCT120 SCT200=



000
FTUS43 KEAX 310005 AAB
TAFMKC
TAF AMD
KMKC 310005Z 3100/3124 17011KT P6SM SCT200
     FM310300 18005KT P6SM SCT250
     FM311600 18006KT P6SM VCSH BKN035
     FM312100 18005KT P6SM SHRA VCTS BKN060CB=



000
FTUS43 KEAX 301729
TAFMKC
TAF
KMKC 301729Z 3018/3118 17009KT P6SM BKN250
     FM302000 17009KT P6SM VCTS BKN050CB
     FM310100 18005KT P6SM BKN200=



000
FTUS43 KEAX 301729
TAFSTJ
TAF
KSTJ 301729Z 3018/3118 18007KT P6SM SCT250
     FM302000 17009KT P6SM VCTS BKN050CB
     FM310100 18006KT P6SM SCT200=



000
FTUS43 KEAX 301729
TAFMCI
TAF
KMCI 301729Z 3018/3118 17008KT P6SM BKN250
     FM302000 17010KT P6SM VCTS BKN050CB
     FM310100 18006KT P6SM BKN200=



000
FTUS43 KEAX 291723
TAFSTJ
TAF
KSTJ 291723Z 2918/3018 21005KT P6SM SCT070
     FM300100 18003KT P6SM BKN250
     FM301300 17010KT P6SM BKN060=



000
FTUS43 KEAX 291723
TAFMKC
TAF
KMKC 291723Z 2918/3018 22006KT P6SM SCT070
     FM300100 18003KT P6SM BKN250
     FM301300 17010KT P6SM BKN060=



000
FTUS43 KEAX 291723
TAFMCI
TAF
KMCI 291723Z 2918/3018 21008KT P6SM SCT070
     FM300100 18004KT P6SM BKN250
     FM301300 17011KT P6SM BKN060=



    US Dept of Commerce
    National Oceanic and Atmospheric Administration
    National Weather Service
    1325 East West Highway
    Silver Spring, MD 20910
    Page Author: NWS Internet Services Team
Disclaimer
Information Quality
Credits
Glossary
Privacy Policy
Freedom of Information Act (FOIA)
About Us
Career Opportunities